KNIP/NIP METAR and TAF weather

Enter ICAO airport designator
Station Type Date Time Source
KNIP METAR 2021/03/05 19:53 UTC NOAA

KNIP 051953Z 04014KT 10SM BKN250 18/10 A3002 RMK AO2 SLP161 T01830100


Station Type Date Time Source
KNIP Decoded METAR 2021/03/05 19:53 UTC NOAA

JACKSONVILLE NAVAL AIR STN, FL, United States (KNIP) 30-14N 81-40W 8M
Mar 05, 2021 - 02:53 PM EST / 2021.03.05 1953 UTC
Wind: from the NE (040 degrees) at 16 MPH (14 KT):0
Visibility: 10 mile(s):0
Sky conditions: mostly cloudy
Temperature: 64.9 F (18.3 C)
Dew Point: 50.0 F (10.0 C)
Relative Humidity: 58%
Pressure (altimeter): 30.02 in. Hg (1016 hPa)
ob: KNIP 051953Z 04014KT 10SM BKN250 18/10 A3002 RMK AO2 SLP161 T01830100
cycle: 20

Station Type Date Time Source
KNIP TAF 2021/03/05 23:26 UTC NOAA

TAF
AMD KNIP 0423/0523 09007KT 9999 SKC QNH2993INS
FM050200 VRB06KT 9999 FEW250 QNH2995INS
FM051500 04009KT 9999 FEW040 SCT250 QNH3004INS
FM051800 06011KT 9999 SCT030 BKN250 QNH3002INS
AMD 2350 T10/0510Z T20/0520Z FN20076

Example: see airport list